Lyerly, Georgia
Current Conditions -  °F | °C
As of 10:53 PM on Tuesday 21 Oct 2014 (Local Time) from KRMG Reporting Station
Clear Clear  
Wind Chill: 11°   Ceiling: Unl
Heat Index: 11°   Visibility: 10mi
Dew Point:   Wind: 7mph
Humidity: 83%   Direction: 350°N
Pressure: 30.04"   Gusts: NA
Location:  34.4°N, 85.4°W
Report Text: KRMG 220253Z AUTO 35006KT 10SM CLR 11/08 A3004 RMK AO2 SLP167 T01110083 51014
Loading
Personal Weather Stations






























Interactive Weather Map
Tropical Storm Tracking
New forecast layout! Learn more

10-Day Weather Forecast

Advertisements
Track Severe Weather on mobile